KELK/ELK METAR and TAF weather

Enter ICAO airport designator
Station Type Date Time Source
KELK METAR 2019/08/24 09:35 UTC NOAA

KELK 240935Z AUTO 18009KT 10SM CLR 20/17 A2997 RMK AO2 T02010167


Station Type Date Time Source
KELK Decoded METAR 2019/08/24 09:35 UTC NOAA

Station name not available
Aug 24, 2019 - 05:35 AM EDT / 2019.08.24 0935 UTC
Wind: from the S (180 degrees) at 10 MPH (9 KT):0
Visibility: 10 mile(s):0
Sky conditions: clear
Temperature: 68.2 F (20.1 C)
Dew Point: 62.1 F (16.7 C)
Relative Humidity: 80%
Pressure (altimeter): 29.97 in. Hg (1014 hPa)
ob: KELK 240935Z AUTO 18009KT 10SM CLR 20/17 A2997 RMK AO2 T02010167
cycle: 9

Station Type Date Time Source
KELK TAF UTC NOAA

Error!

Example: see airport list